sensor_id;sensor_type;location;lat;lon;timestamp;P1;durP1;ratioP1;P2;durP2;ratioP2
37559;SDS011;23398;50.928;7.084;2023-06-10T00:02:25;5.90;;;5.07;;
37559;SDS011;23398;50.928;7.084;2023-06-10T00:04:52;5.00;;;4.55;;
37559;SDS011;23398;50.928;7.084;2023-06-10T00:07:17;6.35;;;4.65;;
37559;SDS011;23398;50.928;7.084;2023-06-10T00:09:43;4.72;;;4.32;;
37559;SDS011;23398;50.928;7.084;2023-06-10T00:12:09;4.95;;;4.55;;
37559;SDS011;23398;50.928;7.084;2023-06-10T00:14:38;5.35;;;4.85;;
37559;SDS011;23398;50.928;7.084;2023-06-10T00:17:05;5.43;;;4.70;;
37559;SDS011;23398;50.928;7.084;2023-06-10T00:19:34;6.78;;;4.68;;
37559;SDS011;23398;50.928;7.084;2023-06-10T00:22:00;5.15;;;4.57;;
37559;SDS011;23398;50.928;7.084;2023-06-10T00:24:25;6.32;;;4.85;;
37559;SDS011;23398;50.928;7.084;2023-06-10T00:26:51;5.28;;;4.50;;
37559;SDS011;23398;50.928;7.084;2023-06-10T00:29:17;5.90;;;5.13;;
37559;SDS011;23398;50.928;7.084;2023-06-10T00:31:44;5.15;;;4.72;;
37559;SDS011;23398;50.928;7.084;2023-06-10T00:34:10;4.63;;;4.22;;
37559;SDS011;23398;50.928;7.084;2023-06-10T00:36:36;6.35;;;4.30;;
37559;SDS011;23398;50.928;7.084;2023-06-10T00:39:02;5.85;;;4.57;;
37559;SDS011;23398;50.928;7.084;2023-06-10T00:41:29;4.75;;;4.32;;
37559;SDS011;23398;50.928;7.084;2023-06-10T00:43:55;5.72;;;4.47;;
37559;SDS011;23398;50.928;7.084;2023-06-10T00:46:21;5.18;;;4.45;;
37559;SDS011;23398;50.928;7.084;2023-06-10T00:48:48;5.85;;;4.55;;
37559;SDS011;23398;50.928;7.084;2023-06-10T00:51:15;5.70;;;4.80;;
37559;SDS011;23398;50.928;7.084;2023-06-10T00:53:41;5.38;;;4.78;;
37559;SDS011;23398;50.928;7.084;2023-06-10T00:56:07;5.32;;;4.40;;
37559;SDS011;23398;50.928;7.084;2023-06-10T00:58:33;5.65;;;5.05;;
37559;SDS011;23398;50.928;7.084;2023-06-10T01:01:00;5.30;;;4.80;;
37559;SDS011;23398;50.928;7.084;2023-06-10T01:03:25;6.65;;;4.93;;
37559;SDS011;23398;50.928;7.084;2023-06-10T01:05:53;5.13;;;4.63;;
37559;SDS011;23398;50.928;7.084;2023-06-10T01:11:34;4.97;;;4.47;;
37559;SDS011;23398;50.928;7.084;2023-06-10T01:14:08;7.63;;;4.57;;
37559;SDS011;23398;50.928;7.084;2023-06-10T01:16:35;6.80;;;4.97;;
37559;SDS011;23398;50.928;7.084;2023-06-10T01:19:02;6.38;;;4.85;;
37559;SDS011;23398;50.928;7.084;2023-06-10T01:21:28;5.97;;;5.03;;
37559;SDS011;23398;50.928;7.084;2023-06-10T01:23:54;5.55;;;4.13;;
37559;SDS011;23398;50.928;7.084;2023-06-10T01:26:22;5.10;;;4.70;;
37559;SDS011;23398;50.928;7.084;2023-06-10T01:29:02;5.32;;;4.82;;
37559;SDS011;23398;50.928;7.084;2023-06-10T01:31:41;5.72;;;5.22;;
37559;SDS011;23398;50.928;7.084;2023-06-10T01:34:08;4.90;;;4.47;;
37559;SDS011;23398;50.928;7.084;2023-06-10T01:36:35;5.97;;;4.65;;
37559;SDS011;23398;50.928;7.084;2023-06-10T01:39:02;5.05;;;4.47;;
37559;SDS011;23398;50.928;7.084;2023-06-10T01:41:29;6.18;;;4.10;;
37559;SDS011;23398;50.928;7.084;2023-06-10T01:43:56;5.10;;;3.80;;
37559;SDS011;23398;50.928;7.084;2023-06-10T01:46:22;4.00;;;3.47;;
37559;SDS011;23398;50.928;7.084;2023-06-10T01:48:47;6.22;;;4.63;;
37559;SDS011;23398;50.928;7.084;2023-06-10T01:51:13;4.85;;;4.20;;
37559;SDS011;23398;50.928;7.084;2023-06-10T01:53:39;5.30;;;4.65;;
37559;SDS011;23398;50.928;7.084;2023-06-10T01:56:04;5.55;;;4.20;;
37559;SDS011;23398;50.928;7.084;2023-06-10T01:58:30;5.93;;;5.10;;
37559;SDS011;23398;50.928;7.084;2023-06-10T02:00:56;6.32;;;5.32;;
37559;SDS011;23398;50.928;7.084;2023-06-10T02:03:21;5.07;;;4.43;;
37559;SDS011;23398;50.928;7.084;2023-06-10T02:05:47;4.45;;;4.05;;
37559;SDS011;23398;50.928;7.084;2023-06-10T02:08:13;5.88;;;4.13;;
37559;SDS011;23398;50.928;7.084;2023-06-10T02:10:38;5.65;;;4.32;;
37559;SDS011;23398;50.928;7.084;2023-06-10T02:13:05;5.40;;;4.10;;
37559;SDS011;23398;50.928;7.084;2023-06-10T02:15:31;6.10;;;4.75;;
37559;SDS011;23398;50.928;7.084;2023-06-10T02:17:56;6.15;;;4.28;;
37559;SDS011;23398;50.928;7.084;2023-06-10T02:20:22;8.05;;;4.75;;
37559;SDS011;23398;50.928;7.084;2023-06-10T02:22:48;5.05;;;4.03;;
37559;SDS011;23398;50.928;7.084;2023-06-10T02:25:14;5.68;;;4.40;;
37559;SDS011;23398;50.928;7.084;2023-06-10T02:27:39;5.65;;;5.05;;
37559;SDS011;23398;50.928;7.084;2023-06-10T02:30:05;6.45;;;5.82;;
37559;SDS011;23398;50.928;7.084;2023-06-10T02:32:31;6.47;;;5.80;;
37559;SDS011;23398;50.928;7.084;2023-06-10T02:34:57;5.60;;;5.10;;
37559;SDS011;23398;50.928;7.084;2023-06-10T02:37:25;4.57;;;4.18;;
37559;SDS011;23398;50.928;7.084;2023-06-10T02:39:50;5.60;;;5.10;;
37559;SDS011;23398;50.928;7.084;2023-06-10T02:42:16;6.05;;;5.47;;
37559;SDS011;23398;50.928;7.084;2023-06-10T02:44:41;6.38;;;4.55;;
37559;SDS011;23398;50.928;7.084;2023-06-10T02:47:07;5.90;;;5.40;;
37559;SDS011;23398;50.928;7.084;2023-06-10T02:49:33;5.55;;;5.07;;
37559;SDS011;23398;50.928;7.084;2023-06-10T02:51:58;6.18;;;5.57;;
37559;SDS011;23398;50.928;7.084;2023-06-10T02:54:24;7.03;;;5.68;;
37559;SDS011;23398;50.928;7.084;2023-06-10T02:56:51;5.68;;;5.18;;
37559;SDS011;23398;50.928;7.084;2023-06-10T02:59:17;5.68;;;4.68;;
37559;SDS011;23398;50.928;7.084;2023-06-10T03:01:43;5.65;;;5.00;;
37559;SDS011;23398;50.928;7.084;2023-06-10T03:04:09;6.00;;;5.50;;
37559;SDS011;23398;50.928;7.084;2023-06-10T03:06:34;5.47;;;4.57;;
37559;SDS011;23398;50.928;7.084;2023-06-10T03:09:01;5.95;;;5.45;;
37559;SDS011;23398;50.928;7.084;2023-06-10T03:11:29;6.15;;;5.55;;
37559;SDS011;23398;50.928;7.084;2023-06-10T03:13:56;6.57;;;5.97;;
37559;SDS011;23398;50.928;7.084;2023-06-10T03:16:22;6.85;;;6.07;;
37559;SDS011;23398;50.928;7.084;2023-06-10T03:18:48;5.40;;;4.88;;
37559;SDS011;23398;50.928;7.084;2023-06-10T03:21:14;6.20;;;4.97;;
37559;SDS011;23398;50.928;7.084;2023-06-10T03:23:40;6.10;;;5.50;;
37559;SDS011;23398;50.928;7.084;2023-06-10T03:26:05;6.85;;;5.20;;
37559;SDS011;23398;50.928;7.084;2023-06-10T03:28:31;6.75;;;5.15;;
37559;SDS011;23398;50.928;7.084;2023-06-10T03:30:56;6.47;;;5.68;;
37559;SDS011;23398;50.928;7.084;2023-06-10T03:33:22;6.10;;;5.43;;
37559;SDS011;23398;50.928;7.084;2023-06-10T03:35:48;7.13;;;6.43;;
37559;SDS011;23398;50.928;7.084;2023-06-10T03:38:15;7.10;;;5.25;;
37559;SDS011;23398;50.928;7.084;2023-06-10T03:40:41;6.70;;;6.10;;
37559;SDS011;23398;50.928;7.084;2023-06-10T03:43:07;6.68;;;6.03;;
37559;SDS011;23398;50.928;7.084;2023-06-10T03:45:32;6.65;;;6.05;;
37559;SDS011;23398;50.928;7.084;2023-06-10T03:47:58;6.43;;;5.82;;
37559;SDS011;23398;50.928;7.084;2023-06-10T03:50:23;6.20;;;5.70;;
37559;SDS011;23398;50.928;7.084;2023-06-10T03:52:49;6.15;;;5.55;;
37559;SDS011;23398;50.928;7.084;2023-06-10T03:55:15;6.13;;;5.60;;
37559;SDS011;23398;50.928;7.084;2023-06-10T03:57:42;5.75;;;5.25;;
37559;SDS011;23398;50.928;7.084;2023-06-10T04:00:08;6.22;;;5.60;;
37559;SDS011;23398;50.928;7.084;2023-06-10T04:02:37;6.07;;;5.47;;
37559;SDS011;23398;50.928;7.084;2023-06-10T04:05:10;7.47;;;6.70;;
37559;SDS011;23398;50.928;7.084;2023-06-10T04:07:36;7.40;;;6.65;;
37559;SDS011;23398;50.928;7.084;2023-06-10T04:10:04;7.20;;;6.60;;
37559;SDS011;23398;50.928;7.084;2023-06-10T04:12:30;6.05;;;5.40;;
37559;SDS011;23398;50.928;7.084;2023-06-10T04:14:55;6.45;;;5.93;;
37559;SDS011;23398;50.928;7.084;2023-06-10T04:17:21;6.60;;;5.97;;
37559;SDS011;23398;50.928;7.084;2023-06-10T04:19:47;6.68;;;6.07;;
37559;SDS011;23398;50.928;7.084;2023-06-10T04:22:12;6.10;;;5.55;;
37559;SDS011;23398;50.928;7.084;2023-06-10T04:24:38;7.25;;;6.55;;
37559;SDS011;23398;50.928;7.084;2023-06-10T04:27:03;7.13;;;6.50;;
37559;SDS011;23398;50.928;7.084;2023-06-10T04:29:30;7.00;;;6.40;;
37559;SDS011;23398;50.928;7.084;2023-06-10T04:31:55;7.68;;;6.90;;
37559;SDS011;23398;50.928;7.084;2023-06-10T04:34:21;7.80;;;7.10;;
37559;SDS011;23398;50.928;7.084;2023-06-10T04:36:46;8.10;;;7.25;;
37559;SDS011;23398;50.928;7.084;2023-06-10T04:39:12;7.88;;;6.32;;
37559;SDS011;23398;50.928;7.084;2023-06-10T04:41:38;7.57;;;6.88;;
37559;SDS011;23398;50.928;7.084;2023-06-10T04:44:04;7.50;;;6.78;;
37559;SDS011;23398;50.928;7.084;2023-06-10T04:46:29;7.15;;;6.55;;
37559;SDS011;23398;50.928;7.084;2023-06-10T04:48:56;8.82;;;6.70;;
37559;SDS011;23398;50.928;7.084;2023-06-10T04:51:22;7.28;;;6.65;;
37559;SDS011;23398;50.928;7.084;2023-06-10T04:53:47;7.10;;;6.50;;
37559;SDS011;23398;50.928;7.084;2023-06-10T04:56:13;7.03;;;6.32;;
37559;SDS011;23398;50.928;7.084;2023-06-10T04:58:40;7.88;;;7.18;;
37559;SDS011;23398;50.928;7.084;2023-06-10T05:01:05;8.05;;;7.20;;
37559;SDS011;23398;50.928;7.084;2023-06-10T05:03:31;7.22;;;6.63;;
37559;SDS011;23398;50.928;7.084;2023-06-10T05:05:57;7.53;;;6.82;;
37559;SDS011;23398;50.928;7.084;2023-06-10T05:08:22;8.20;;;7.40;;
37559;SDS011;23398;50.928;7.084;2023-06-10T05:10:48;7.85;;;7.07;;
37559;SDS011;23398;50.928;7.084;2023-06-10T05:13:14;7.78;;;6.78;;
37559;SDS011;23398;50.928;7.084;2023-06-10T05:15:40;7.43;;;6.72;;
37559;SDS011;23398;50.928;7.084;2023-06-10T05:18:09;7.47;;;6.88;;
37559;SDS011;23398;50.928;7.084;2023-06-10T05:20:35;7.82;;;7.18;;
37559;SDS011;23398;50.928;7.084;2023-06-10T05:23:01;7.63;;;6.93;;
37559;SDS011;23398;50.928;7.084;2023-06-10T05:25:28;7.63;;;6.97;;
37559;SDS011;23398;50.928;7.084;2023-06-10T05:27:55;8.10;;;7.30;;
37559;SDS011;23398;50.928;7.084;2023-06-10T05:30:21;8.05;;;7.25;;
37559;SDS011;23398;50.928;7.084;2023-06-10T05:32:47;8.50;;;7.70;;
37559;SDS011;23398;50.928;7.084;2023-06-10T05:35:13;8.13;;;7.35;;
37559;SDS011;23398;50.928;7.084;2023-06-10T05:37:38;8.48;;;7.68;;
37559;SDS011;23398;50.928;7.084;2023-06-10T05:40:04;9.50;;;7.78;;
37559;SDS011;23398;50.928;7.084;2023-06-10T05:42:31;8.25;;;7.35;;
37559;SDS011;23398;50.928;7.084;2023-06-10T05:44:56;8.80;;;7.65;;
37559;SDS011;23398;50.928;7.084;2023-06-10T05:47:22;8.10;;;7.38;;
37559;SDS011;23398;50.928;7.084;2023-06-10T05:49:47;8.20;;;7.40;;
37559;SDS011;23398;50.928;7.084;2023-06-10T05:52:15;8.02;;;7.22;;
37559;SDS011;23398;50.928;7.084;2023-06-10T05:54:40;7.50;;;6.80;;
37559;SDS011;23398;50.928;7.084;2023-06-10T05:57:06;7.75;;;7.05;;
37559;SDS011;23398;50.928;7.084;2023-06-10T05:59:32;8.02;;;7.22;;
37559;SDS011;23398;50.928;7.084;2023-06-10T06:01:58;7.32;;;6.63;;
37559;SDS011;23398;50.928;7.084;2023-06-10T06:04:23;8.43;;;7.07;;
37559;SDS011;23398;50.928;7.084;2023-06-10T06:06:49;7.13;;;6.43;;
37559;SDS011;23398;50.928;7.084;2023-06-10T06:09:15;7.97;;;7.15;;
37559;SDS011;23398;50.928;7.084;2023-06-10T06:11:40;7.65;;;6.95;;
37559;SDS011;23398;50.928;7.084;2023-06-10T06:14:06;11.82;;;8.27;;
37559;SDS011;23398;50.928;7.084;2023-06-10T06:16:32;10.23;;;8.18;;
37559;SDS011;23398;50.928;7.084;2023-06-10T06:18:58;9.10;;;7.38;;
37559;SDS011;23398;50.928;7.084;2023-06-10T06:21:23;9.82;;;7.78;;
37559;SDS011;23398;50.928;7.084;2023-06-10T06:23:49;8.13;;;7.32;;
37559;SDS011;23398;50.928;7.084;2023-06-10T06:26:14;9.20;;;7.80;;
37559;SDS011;23398;50.928;7.084;2023-06-10T06:28:40;8.32;;;7.43;;
37559;SDS011;23398;50.928;7.084;2023-06-10T06:31:06;9.23;;;8.07;;
37559;SDS011;23398;50.928;7.084;2023-06-10T06:33:32;8.57;;;7.68;;
37559;SDS011;23398;50.928;7.084;2023-06-10T06:35:57;9.85;;;7.30;;
37559;SDS011;23398;50.928;7.084;2023-06-10T06:38:25;7.07;;;6.38;;
37559;SDS011;23398;50.928;7.084;2023-06-10T06:40:51;7.32;;;6.47;;
37559;SDS011;23398;50.928;7.084;2023-06-10T06:43:16;6.38;;;5.53;;
37559;SDS011;23398;50.928;7.084;2023-06-10T06:45:43;9.80;;;6.10;;
37559;SDS011;23398;50.928;7.084;2023-06-10T06:48:10;6.35;;;5.75;;
37559;SDS011;23398;50.928;7.084;2023-06-10T06:50:36;5.25;;;4.78;;
37559;SDS011;23398;50.928;7.084;2023-06-10T06:53:02;6.00;;;5.40;;
37559;SDS011;23398;50.928;7.084;2023-06-10T06:55:27;5.68;;;5.18;;
37559;SDS011;23398;50.928;7.084;2023-06-10T06:57:53;6.03;;;4.78;;
37559;SDS011;23398;50.928;7.084;2023-06-10T07:00:19;5.82;;;5.32;;
37559;SDS011;23398;50.928;7.084;2023-06-10T07:02:45;4.53;;;4.13;;
37559;SDS011;23398;50.928;7.084;2023-06-10T07:05:10;4.85;;;4.45;;
37559;SDS011;23398;50.928;7.084;2023-06-10T07:07:36;4.28;;;3.97;;
37559;SDS011;23398;50.928;7.084;2023-06-10T07:10:01;4.20;;;3.85;;
37559;SDS011;23398;50.928;7.084;2023-06-10T07:12:27;4.82;;;4.00;;
37559;SDS011;23398;50.928;7.084;2023-06-10T07:14:53;4.53;;;4.13;;
37559;SDS011;23398;50.928;7.084;2023-06-10T07:17:18;5.47;;;3.92;;
37559;SDS011;23398;50.928;7.084;2023-06-10T07:19:45;3.90;;;3.60;;
37559;SDS011;23398;50.928;7.084;2023-06-10T07:22:10;4.22;;;3.90;;
37559;SDS011;23398;50.928;7.084;2023-06-10T07:24:36;4.50;;;3.65;;
37559;SDS011;23398;50.928;7.084;2023-06-10T07:27:02;4.35;;;4.00;;
37559;SDS011;23398;50.928;7.084;2023-06-10T07:29:27;4.13;;;3.70;;
37559;SDS011;23398;50.928;7.084;2023-06-10T07:31:53;4.05;;;3.75;;
37559;SDS011;23398;50.928;7.084;2023-06-10T07:34:19;4.10;;;3.70;;
37559;SDS011;23398;50.928;7.084;2023-06-10T07:36:44;4.15;;;3.33;;
37559;SDS011;23398;50.928;7.084;2023-06-10T07:39:10;3.92;;;3.63;;
37559;SDS011;23398;50.928;7.084;2023-06-10T07:41:35;3.42;;;3.17;;
37559;SDS011;23398;50.928;7.084;2023-06-10T07:44:01;3.72;;;3.30;;
37559;SDS011;23398;50.928;7.084;2023-06-10T07:46:27;3.80;;;3.50;;
37559;SDS011;23398;50.928;7.084;2023-06-10T07:48:53;3.70;;;3.40;;
37559;SDS011;23398;50.928;7.084;2023-06-10T07:51:20;3.70;;;3.50;;
37559;SDS011;23398;50.928;7.084;2023-06-10T07:53:46;5.72;;;3.50;;
37559;SDS011;23398;50.928;7.084;2023-06-10T07:56:12;3.90;;;3.60;;
37559;SDS011;23398;50.928;7.084;2023-06-10T07:58:38;3.65;;;3.17;;
37559;SDS011;23398;50.928;7.084;2023-06-10T08:01:03;3.85;;;3.50;;
37559;SDS011;23398;50.928;7.084;2023-06-10T08:03:30;3.85;;;3.55;;
37559;SDS011;23398;50.928;7.084;2023-06-10T08:05:55;3.75;;;3.45;;
37559;SDS011;23398;50.928;7.084;2023-06-10T08:08:21;3.70;;;3.40;;
37559;SDS011;23398;50.928;7.084;2023-06-10T08:10:46;4.32;;;3.63;;
37559;SDS011;23398;50.928;7.084;2023-06-10T08:13:13;3.78;;;3.47;;
37559;SDS011;23398;50.928;7.084;2023-06-10T08:15:38;3.65;;;3.42;;
37559;SDS011;23398;50.928;7.084;2023-06-10T08:18:04;3.90;;;3.60;;
37559;SDS011;23398;50.928;7.084;2023-06-10T08:20:29;4.88;;;4.10;;
37559;SDS011;23398;50.928;7.084;2023-06-10T08:22:55;3.88;;;3.63;;
37559;SDS011;23398;50.928;7.084;2023-06-10T08:25:20;4.05;;;3.65;;
37559;SDS011;23398;50.928;7.084;2023-06-10T08:27:47;4.30;;;4.00;;
37559;SDS011;23398;50.928;7.084;2023-06-10T08:30:13;4.38;;;3.88;;
37559;SDS011;23398;50.928;7.084;2023-06-10T08:32:39;4.18;;;3.78;;
37559;SDS011;23398;50.928;7.084;2023-06-10T08:35:05;4.47;;;4.18;;
37559;SDS011;23398;50.928;7.084;2023-06-10T08:37:30;4.22;;;3.95;;
37559;SDS011;23398;50.928;7.084;2023-06-10T08:39:56;4.65;;;4.35;;
37559;SDS011;23398;50.928;7.084;2023-06-10T08:45:17;4.55;;;4.15;;
37559;SDS011;23398;50.928;7.084;2023-06-10T08:47:44;4.47;;;4.18;;
37559;SDS011;23398;50.928;7.084;2023-06-10T08:50:11;6.07;;;4.70;;
37559;SDS011;23398;50.928;7.084;2023-06-10T08:52:37;10.25;;;6.68;;
37559;SDS011;23398;50.928;7.084;2023-06-10T08:57:44;6.78;;;6.18;;
37559;SDS011;23398;50.928;7.084;2023-06-10T09:00:10;6.85;;;5.63;;
37559;SDS011;23398;50.928;7.084;2023-06-10T09:02:38;5.57;;;5.20;;
37559;SDS011;23398;50.928;7.084;2023-06-10T09:05:04;5.20;;;4.80;;
37559;SDS011;23398;50.928;7.084;2023-06-10T09:07:30;4.70;;;4.40;;
37559;SDS011;23398;50.928;7.084;2023-06-10T09:09:56;5.10;;;4.70;;
37559;SDS011;23398;50.928;7.084;2023-06-10T09:12:24;5.10;;;4.70;;
37559;SDS011;23398;50.928;7.084;2023-06-10T09:14:50;5.78;;;5.28;;
37559;SDS011;23398;50.928;7.084;2023-06-10T09:17:16;5.28;;;4.88;;
37559;SDS011;23398;50.928;7.084;2023-06-10T09:19:42;5.05;;;4.75;;
37559;SDS011;23398;50.928;7.084;2023-06-10T09:22:09;5.63;;;5.22;;
37559;SDS011;23398;50.928;7.084;2023-06-10T09:24:34;5.53;;;5.03;;
37559;SDS011;23398;50.928;7.084;2023-06-10T09:27:07;5.20;;;4.90;;
37559;SDS011;23398;50.928;7.084;2023-06-10T09:29:46;5.38;;;4.97;;
37559;SDS011;23398;50.928;7.084;2023-06-10T09:32:17;4.90;;;4.60;;
37559;SDS011;23398;50.928;7.084;2023-06-10T09:34:43;4.97;;;4.68;;
37559;SDS011;23398;50.928;7.084;2023-06-10T09:37:09;5.25;;;4.90;;
37559;SDS011;23398;50.928;7.084;2023-06-10T09:39:37;6.15;;;5.75;;
37559;SDS011;23398;50.928;7.084;2023-06-10T09:42:15;5.68;;;5.38;;
37559;SDS011;23398;50.928;7.084;2023-06-10T09:44:53;5.57;;;5.07;;
37559;SDS011;23398;50.928;7.084;2023-06-10T09:47:21;5.95;;;5.13;;
37559;SDS011;23398;50.928;7.084;2023-06-10T09:49:48;5.70;;;5.30;;
37559;SDS011;23398;50.928;7.084;2023-06-10T09:52:26;5.60;;;5.25;;
37559;SDS011;23398;50.928;7.084;2023-06-10T09:54:53;5.25;;;4.95;;
37559;SDS011;23398;50.928;7.084;2023-06-10T09:57:20;5.10;;;4.80;;
37559;SDS011;23398;50.928;7.084;2023-06-10T09:59:46;5.03;;;4.70;;
37559;SDS011;23398;50.928;7.084;2023-06-10T10:02:13;5.35;;;4.93;;
37559;SDS011;23398;50.928;7.084;2023-06-10T10:04:42;5.38;;;5.00;;
37559;SDS011;23398;50.928;7.084;2023-06-10T10:07:11;5.03;;;4.63;;
37559;SDS011;23398;50.928;7.084;2023-06-10T10:09:37;4.20;;;3.90;;
37559;SDS011;23398;50.928;7.084;2023-06-10T10:12:06;4.30;;;4.00;;
37559;SDS011;23398;50.928;7.084;2023-06-10T10:14:35;4.22;;;3.92;;
37559;SDS011;23398;50.928;7.084;2023-06-10T10:17:02;4.45;;;4.05;;
37559;SDS011;23398;50.928;7.084;2023-06-10T10:19:32;4.35;;;4.05;;
37559;SDS011;23398;50.928;7.084;2023-06-10T10:22:06;4.32;;;4.03;;
37559;SDS011;23398;50.928;7.084;2023-06-10T10:24:40;4.15;;;3.47;;
37559;SDS011;23398;50.928;7.084;2023-06-10T10:27:30;4.13;;;3.78;;
37559;SDS011;23398;50.928;7.084;2023-06-10T10:30:01;4.13;;;3.83;;
37559;SDS011;23398;50.928;7.084;2023-06-10T10:32:50;4.85;;;4.47;;
37559;SDS011;23398;50.928;7.084;2023-06-10T10:35:24;4.20;;;3.90;;
37559;SDS011;23398;50.928;7.084;2023-06-10T10:37:54;4.45;;;3.90;;
37559;SDS011;23398;50.928;7.084;2023-06-10T10:40:20;4.28;;;3.92;;
37559;SDS011;23398;50.928;7.084;2023-06-10T10:42:48;4.03;;;3.63;;
37559;SDS011;23398;50.928;7.084;2023-06-10T10:45:14;3.88;;;3.50;;
37559;SDS011;23398;50.928;7.084;2023-06-10T10:47:41;3.35;;;3.10;;
37559;SDS011;23398;50.928;7.084;2023-06-10T10:50:12;5.53;;;3.25;;
37559;SDS011;23398;50.928;7.084;2023-06-10T10:52:55;4.75;;;3.60;;
37559;SDS011;23398;50.928;7.084;2023-06-10T10:55:25;4.72;;;3.42;;
37559;SDS011;23398;50.928;7.084;2023-06-10T10:57:58;7.22;;;3.88;;
37559;SDS011;23398;50.928;7.084;2023-06-10T11:00:30;4.90;;;3.40;;
37559;SDS011;23398;50.928;7.084;2023-06-10T11:05:32;3.63;;;3.33;;
37559;SDS011;23398;50.928;7.084;2023-06-10T11:08:05;4.25;;;3.20;;
37559;SDS011;23398;50.928;7.084;2023-06-10T11:10:38;4.03;;;3.63;;
37559;SDS011;23398;50.928;7.084;2023-06-10T11:13:09;3.88;;;3.50;;
37559;SDS011;23398;50.928;7.084;2023-06-10T11:15:39;4.97;;;3.75;;
37559;SDS011;23398;50.928;7.084;2023-06-10T11:18:10;3.58;;;3.28;;
37559;SDS011;23398;50.928;7.084;2023-06-10T11:23:10;4.43;;;3.58;;
37559;SDS011;23398;50.928;7.084;2023-06-10T11:25:49;4.97;;;3.65;;
37559;SDS011;23398;50.928;7.084;2023-06-10T11:28:18;5.50;;;3.70;;
37559;SDS011;23398;50.928;7.084;2023-06-10T11:30:45;4.25;;;3.47;;
37559;SDS011;23398;50.928;7.084;2023-06-10T11:33:20;3.97;;;3.58;;
37559;SDS011;23398;50.928;7.084;2023-06-10T11:35:46;3.45;;;3.10;;
37559;SDS011;23398;50.928;7.084;2023-06-10T11:38:12;4.20;;;3.67;;
37559;SDS011;23398;50.928;7.084;2023-06-10T11:40:38;3.67;;;3.38;;
37559;SDS011;23398;50.928;7.084;2023-06-10T11:43:04;3.65;;;3.22;;
37559;SDS011;23398;50.928;7.084;2023-06-10T11:45:30;4.22;;;3.80;;
37559;SDS011;23398;50.928;7.084;2023-06-10T11:47:59;6.45;;;3.67;;
37559;SDS011;23398;50.928;7.084;2023-06-10T11:50:31;3.92;;;3.60;;
37559;SDS011;23398;50.928;7.084;2023-06-10T11:52:57;4.07;;;3.67;;
37559;SDS011;23398;50.928;7.084;2023-06-10T11:55:24;5.10;;;3.70;;
37559;SDS011;23398;50.928;7.084;2023-06-10T11:58:14;3.53;;;3.22;;
37559;SDS011;23398;50.928;7.084;2023-06-10T12:00:47;3.90;;;3.30;;
37559;SDS011;23398;50.928;7.084;2023-06-10T12:03:15;6.25;;;3.80;;
37559;SDS011;23398;50.928;7.084;2023-06-10T12:08:26;4.55;;;3.88;;
37559;SDS011;23398;50.928;7.084;2023-06-10T12:10:52;4.30;;;3.90;;
37559;SDS011;23398;50.928;7.084;2023-06-10T12:13:18;7.75;;;3.95;;
37559;SDS011;23398;50.928;7.084;2023-06-10T12:15:44;5.22;;;3.60;;
37559;SDS011;23398;50.928;7.084;2023-06-10T12:18:20;3.75;;;3.40;;
37559;SDS011;23398;50.928;7.084;2023-06-10T12:20:47;3.50;;;3.20;;
37559;SDS011;23398;50.928;7.084;2023-06-10T12:23:14;5.85;;;3.90;;
37559;SDS011;23398;50.928;7.084;2023-06-10T12:25:49;4.65;;;3.80;;
37559;SDS011;23398;50.928;7.084;2023-06-10T12:28:20;4.10;;;3.70;;
37559;SDS011;23398;50.928;7.084;2023-06-10T12:30:50;6.82;;;4.25;;
37559;SDS011;23398;50.928;7.084;2023-06-10T12:33:17;4.22;;;3.50;;
37559;SDS011;23398;50.928;7.084;2023-06-10T12:35:47;3.88;;;3.45;;
37559;SDS011;23398;50.928;7.084;2023-06-10T12:38:14;4.13;;;3.72;;
37559;SDS011;23398;50.928;7.084;2023-06-10T12:40:46;3.85;;;3.50;;
37559;SDS011;23398;50.928;7.084;2023-06-10T12:43:12;4.47;;;3.40;;
37559;SDS011;23398;50.928;7.084;2023-06-10T12:45:39;4.20;;;3.30;;
37559;SDS011;23398;50.928;7.084;2023-06-10T12:48:08;3.95;;;3.50;;
37559;SDS011;23398;50.928;7.084;2023-06-10T12:50:42;3.53;;;3.22;;
37559;SDS011;23398;50.928;7.084;2023-06-10T12:53:08;4.05;;;3.65;;
37559;SDS011;23398;50.928;7.084;2023-06-10T12:55:36;3.40;;;3.10;;
37559;SDS011;23398;50.928;7.084;2023-06-10T12:58:02;4.90;;;3.63;;
37559;SDS011;23398;50.928;7.084;2023-06-10T13:00:28;5.07;;;3.55;;
37559;SDS011;23398;50.928;7.084;2023-06-10T13:03:00;3.50;;;3.20;;
37559;SDS011;23398;50.928;7.084;2023-06-10T13:05:27;3.70;;;3.40;;
37559;SDS011;23398;50.928;7.084;2023-06-10T13:07:53;3.80;;;3.50;;
37559;SDS011;23398;50.928;7.084;2023-06-10T13:10:20;3.88;;;3.25;;
37559;SDS011;23398;50.928;7.084;2023-06-10T13:12:46;6.75;;;3.00;;
37559;SDS011;23398;50.928;7.084;2023-06-10T13:15:12;4.00;;;3.40;;
37559;SDS011;23398;50.928;7.084;2023-06-10T13:17:39;4.95;;;3.67;;
37559;SDS011;23398;50.928;7.084;2023-06-10T13:20:07;3.38;;;3.10;;
37559;SDS011;23398;50.928;7.084;2023-06-10T13:22:33;4.00;;;3.42;;
37559;SDS011;23398;50.928;7.084;2023-06-10T13:25:01;3.30;;;3.00;;
37559;SDS011;23398;50.928;7.084;2023-06-10T13:27:28;4.35;;;3.50;;
37559;SDS011;23398;50.928;7.084;2023-06-10T13:29:54;3.13;;;2.90;;
37559;SDS011;23398;50.928;7.084;2023-06-10T13:32:20;3.60;;;3.30;;
37559;SDS011;23398;50.928;7.084;2023-06-10T13:34:45;3.50;;;3.20;;
37559;SDS011;23398;50.928;7.084;2023-06-10T13:37:11;4.30;;;3.13;;
37559;SDS011;23398;50.928;7.084;2023-06-10T13:39:40;3.72;;;3.13;;
37559;SDS011;23398;50.928;7.084;2023-06-10T13:42:06;4.93;;;3.08;;
37559;SDS011;23398;50.928;7.084;2023-06-10T13:44:32;3.40;;;3.10;;
37559;SDS011;23398;50.928;7.084;2023-06-10T13:47:01;5.25;;;3.10;;
37559;SDS011;23398;50.928;7.084;2023-06-10T13:49:27;3.45;;;3.15;;
37559;SDS011;23398;50.928;7.084;2023-06-10T13:51:53;3.30;;;3.00;;
37559;SDS011;23398;50.928;7.084;2023-06-10T13:54:18;3.30;;;3.00;;
37559;SDS011;23398;50.928;7.084;2023-06-10T13:56:44;4.20;;;3.35;;
37559;SDS011;23398;50.928;7.084;2023-06-10T13:59:09;3.78;;;3.08;;
37559;SDS011;23398;50.928;7.084;2023-06-10T14:01:35;3.78;;;3.08;;
37559;SDS011;23398;50.928;7.084;2023-06-10T14:04:01;3.95;;;2.75;;
37559;SDS011;23398;50.928;7.084;2023-06-10T14:06:27;3.80;;;3.50;;
37559;SDS011;23398;50.928;7.084;2023-06-10T14:08:53;3.70;;;3.40;;
37559;SDS011;23398;50.928;7.084;2023-06-10T14:11:19;3.60;;;3.30;;
37559;SDS011;23398;50.928;7.084;2023-06-10T14:13:46;3.67;;;3.38;;
37559;SDS011;23398;50.928;7.084;2023-06-10T14:16:11;3.55;;;3.25;;
37559;SDS011;23398;50.928;7.084;2023-06-10T14:18:37;5.35;;;3.70;;
37559;SDS011;23398;50.928;7.084;2023-06-10T14:21:02;3.60;;;2.95;;
37559;SDS011;23398;50.928;7.084;2023-06-10T14:23:28;3.65;;;3.28;;
37559;SDS011;23398;50.928;7.084;2023-06-10T14:25:54;4.82;;;3.15;;
37559;SDS011;23398;50.928;7.084;2023-06-10T14:28:19;4.43;;;3.03;;
37559;SDS011;23398;50.928;7.084;2023-06-10T14:30:45;3.63;;;3.33;;
37559;SDS011;23398;50.928;7.084;2023-06-10T14:33:10;3.50;;;3.15;;
37559;SDS011;23398;50.928;7.084;2023-06-10T14:35:36;3.80;;;3.22;;
37559;SDS011;23398;50.928;7.084;2023-06-10T14:38:02;3.70;;;3.20;;
37559;SDS011;23398;50.928;7.084;2023-06-10T14:40:27;3.13;;;2.83;;
37559;SDS011;23398;50.928;7.084;2023-06-10T14:42:57;3.72;;;3.33;;
37559;SDS011;23398;50.928;7.084;2023-06-10T14:45:22;3.50;;;3.20;;
37559;SDS011;23398;50.928;7.084;2023-06-10T14:47:49;3.35;;;3.05;;
37559;SDS011;23398;50.928;7.084;2023-06-10T14:50:15;4.18;;;3.42;;
37559;SDS011;23398;50.928;7.084;2023-06-10T14:52:40;3.30;;;3.00;;
37559;SDS011;23398;50.928;7.084;2023-06-10T14:55:06;3.20;;;2.90;;
37559;SDS011;23398;50.928;7.084;2023-06-10T14:57:32;4.22;;;3.17;;
37559;SDS011;23398;50.928;7.084;2023-06-10T14:59:57;4.05;;;3.20;;
37559;SDS011;23398;50.928;7.084;2023-06-10T15:02:23;4.53;;;3.28;;
37559;SDS011;23398;50.928;7.084;2023-06-10T15:04:48;5.63;;;3.00;;